sensor_id;sensor_type;location;lat;lon;timestamp;temperature;humidity
38866;DHT22;62686;48.984;8.394;2023-09-12T00:01:29;17.50;99.90
38866;DHT22;62686;48.984;8.394;2023-09-12T00:03:59;17.40;99.90
38866;DHT22;62686;48.984;8.394;2023-09-12T00:06:27;17.40;99.90
38866;DHT22;62686;48.984;8.394;2023-09-12T00:08:55;17.40;99.90
38866;DHT22;62686;48.984;8.394;2023-09-12T00:11:25;17.30;99.90
38866;DHT22;62686;48.984;8.394;2023-09-12T00:13:53;17.30;99.90
38866;DHT22;62686;48.984;8.394;2023-09-12T00:16:22;17.30;99.90
38866;DHT22;62686;48.984;8.394;2023-09-12T00:18:50;17.30;99.90
38866;DHT22;62686;48.984;8.394;2023-09-12T00:21:18;17.30;99.90
38866;DHT22;62686;48.984;8.394;2023-09-12T00:23:46;17.20;99.90
38866;DHT22;62686;48.984;8.394;2023-09-12T00:26:15;17.20;99.90
38866;DHT22;62686;48.984;8.394;2023-09-12T00:28:44;17.20;99.90
38866;DHT22;62686;48.984;8.394;2023-09-12T00:31:13;17.10;99.90
38866;DHT22;62686;48.984;8.394;2023-09-12T00:33:41;17.20;99.90
38866;DHT22;62686;48.984;8.394;2023-09-12T00:36:09;17.20;99.90
38866;DHT22;62686;48.984;8.394;2023-09-12T00:38:37;17.40;99.90
38866;DHT22;62686;48.984;8.394;2023-09-12T00:41:06;17.40;99.90
38866;DHT22;62686;48.984;8.394;2023-09-12T00:43:34;17.30;99.90
38866;DHT22;62686;48.984;8.394;2023-09-12T00:46:03;17.30;99.90
38866;DHT22;62686;48.984;8.394;2023-09-12T00:48:32;17.30;99.90
38866;DHT22;62686;48.984;8.394;2023-09-12T00:51:01;17.20;99.90
38866;DHT22;62686;48.984;8.394;2023-09-12T00:53:30;17.20;99.90
38866;DHT22;62686;48.984;8.394;2023-09-12T00:55:59;17.20;99.90
38866;DHT22;62686;48.984;8.394;2023-09-12T00:58:28;17.20;99.90
38866;DHT22;62686;48.984;8.394;2023-09-12T01:00:56;17.30;99.90
38866;DHT22;62686;48.984;8.394;2023-09-12T01:03:26;17.20;99.90
38866;DHT22;62686;48.984;8.394;2023-09-12T01:05:56;17.10;99.90
38866;DHT22;62686;48.984;8.394;2023-09-12T01:08:25;17.10;99.90
38866;DHT22;62686;48.984;8.394;2023-09-12T01:10:57;17.00;99.90
38866;DHT22;62686;48.984;8.394;2023-09-12T01:13:26;16.90;99.90
38866;DHT22;62686;48.984;8.394;2023-09-12T01:15:55;16.90;99.90
38866;DHT22;62686;48.984;8.394;2023-09-12T01:18:23;16.80;99.90
38866;DHT22;62686;48.984;8.394;2023-09-12T01:21:19;16.80;99.90
38866;DHT22;62686;48.984;8.394;2023-09-12T01:24:02;16.70;99.90
38866;DHT22;62686;48.984;8.394;2023-09-12T01:26:42;16.70;99.90
38866;DHT22;62686;48.984;8.394;2023-09-12T01:29:19;16.80;99.90
38866;DHT22;62686;48.984;8.394;2023-09-12T01:31:49;16.80;99.90
38866;DHT22;62686;48.984;8.394;2023-09-12T01:34:18;16.80;99.90
38866;DHT22;62686;48.984;8.394;2023-09-12T01:36:47;16.80;99.90
38866;DHT22;62686;48.984;8.394;2023-09-12T01:39:15;16.80;99.90
38866;DHT22;62686;48.984;8.394;2023-09-12T01:41:45;16.90;99.90
38866;DHT22;62686;48.984;8.394;2023-09-12T01:44:15;16.90;99.90
38866;DHT22;62686;48.984;8.394;2023-09-12T01:46:47;16.80;99.90
38866;DHT22;62686;48.984;8.394;2023-09-12T01:49:19;16.80;99.90
38866;DHT22;62686;48.984;8.394;2023-09-12T01:51:49;16.70;99.90
38866;DHT22;62686;48.984;8.394;2023-09-12T01:54:19;16.70;99.90
38866;DHT22;62686;48.984;8.394;2023-09-12T01:56:48;16.70;99.90
38866;DHT22;62686;48.984;8.394;2023-09-12T01:59:16;16.80;99.90
38866;DHT22;62686;48.984;8.394;2023-09-12T02:01:46;16.80;99.90
38866;DHT22;62686;48.984;8.394;2023-09-12T02:04:14;16.80;99.90
38866;DHT22;62686;48.984;8.394;2023-09-12T02:06:42;16.80;99.90
38866;DHT22;62686;48.984;8.394;2023-09-12T02:09:10;16.70;99.90
38866;DHT22;62686;48.984;8.394;2023-09-12T02:11:39;16.70;99.90
38866;DHT22;62686;48.984;8.394;2023-09-12T02:14:07;16.80;99.90
38866;DHT22;62686;48.984;8.394;2023-09-12T02:16:37;16.80;99.90
38866;DHT22;62686;48.984;8.394;2023-09-12T02:19:08;16.80;99.90
38866;DHT22;62686;48.984;8.394;2023-09-12T02:21:36;16.80;99.90
38866;DHT22;62686;48.984;8.394;2023-09-12T02:24:05;16.80;99.90
38866;DHT22;62686;48.984;8.394;2023-09-12T02:26:33;16.80;99.90
38866;DHT22;62686;48.984;8.394;2023-09-12T02:29:03;16.80;99.90
38866;DHT22;62686;48.984;8.394;2023-09-12T02:31:32;16.80;99.90
38866;DHT22;62686;48.984;8.394;2023-09-12T02:34:01;16.80;99.90
38866;DHT22;62686;48.984;8.394;2023-09-12T02:36:30;16.80;99.90
38866;DHT22;62686;48.984;8.394;2023-09-12T02:38:58;16.80;99.90
38866;DHT22;62686;48.984;8.394;2023-09-12T02:41:27;16.80;99.90
38866;DHT22;62686;48.984;8.394;2023-09-12T02:43:55;16.70;99.90
38866;DHT22;62686;48.984;8.394;2023-09-12T02:46:23;16.70;99.90
38866;DHT22;62686;48.984;8.394;2023-09-12T02:48:51;16.70;99.90
38866;DHT22;62686;48.984;8.394;2023-09-12T02:51:19;16.70;99.90
38866;DHT22;62686;48.984;8.394;2023-09-12T02:53:49;16.70;99.90
38866;DHT22;62686;48.984;8.394;2023-09-12T02:56:17;16.70;99.90
38866;DHT22;62686;48.984;8.394;2023-09-12T02:58:46;16.70;99.90
38866;DHT22;62686;48.984;8.394;2023-09-12T03:01:15;16.70;99.90
38866;DHT22;62686;48.984;8.394;2023-09-12T03:03:45;16.60;99.90
38866;DHT22;62686;48.984;8.394;2023-09-12T03:06:13;16.60;99.90
38866;DHT22;62686;48.984;8.394;2023-09-12T03:08:42;16.60;99.90
38866;DHT22;62686;48.984;8.394;2023-09-12T03:11:12;16.60;99.90
38866;DHT22;62686;48.984;8.394;2023-09-12T03:13:41;16.50;99.90
38866;DHT22;62686;48.984;8.394;2023-09-12T03:16:13;16.50;99.90
38866;DHT22;62686;48.984;8.394;2023-09-12T03:18:41;16.50;99.90
38866;DHT22;62686;48.984;8.394;2023-09-12T03:21:09;16.60;99.90
38866;DHT22;62686;48.984;8.394;2023-09-12T03:23:38;16.60;99.90
38866;DHT22;62686;48.984;8.394;2023-09-12T03:26:06;16.60;99.90
38866;DHT22;62686;48.984;8.394;2023-09-12T03:28:36;16.60;99.90
38866;DHT22;62686;48.984;8.394;2023-09-12T03:31:06;16.60;99.90
38866;DHT22;62686;48.984;8.394;2023-09-12T03:33:35;16.70;99.90
38866;DHT22;62686;48.984;8.394;2023-09-12T03:36:04;16.80;99.90
38866;DHT22;62686;48.984;8.394;2023-09-12T03:38:32;16.80;99.90
38866;DHT22;62686;48.984;8.394;2023-09-12T03:41:00;16.80;99.90
38866;DHT22;62686;48.984;8.394;2023-09-12T03:43:29;16.90;99.90
38866;DHT22;62686;48.984;8.394;2023-09-12T03:45:59;16.90;99.90
38866;DHT22;62686;48.984;8.394;2023-09-12T03:48:27;17.00;99.90
38866;DHT22;62686;48.984;8.394;2023-09-12T03:50:57;17.00;99.90
38866;DHT22;62686;48.984;8.394;2023-09-12T03:53:25;17.10;99.90
38866;DHT22;62686;48.984;8.394;2023-09-12T03:55:54;17.10;99.90
38866;DHT22;62686;48.984;8.394;2023-09-12T03:58:23;17.10;99.90
38866;DHT22;62686;48.984;8.394;2023-09-12T04:00:51;17.20;99.90
38866;DHT22;62686;48.984;8.394;2023-09-12T04:03:20;17.10;99.90
38866;DHT22;62686;48.984;8.394;2023-09-12T04:05:50;17.10;99.90
38866;DHT22;62686;48.984;8.394;2023-09-12T04:08:18;17.10;99.90
38866;DHT22;62686;48.984;8.394;2023-09-12T04:10:46;17.10;99.90
38866;DHT22;62686;48.984;8.394;2023-09-12T04:13:14;17.10;99.90
38866;DHT22;62686;48.984;8.394;2023-09-12T04:15:43;17.10;99.90
38866;DHT22;62686;48.984;8.394;2023-09-12T04:18:11;17.10;99.90
38866;DHT22;62686;48.984;8.394;2023-09-12T04:20:40;17.10;99.90
38866;DHT22;62686;48.984;8.394;2023-09-12T04:23:09;17.10;99.90
38866;DHT22;62686;48.984;8.394;2023-09-12T04:25:37;17.10;99.90
38866;DHT22;62686;48.984;8.394;2023-09-12T04:28:05;17.20;99.90
38866;DHT22;62686;48.984;8.394;2023-09-12T04:30:33;17.20;99.90
38866;DHT22;62686;48.984;8.394;2023-09-12T04:33:02;17.20;99.90
38866;DHT22;62686;48.984;8.394;2023-09-12T04:35:33;17.20;99.90
38866;DHT22;62686;48.984;8.394;2023-09-12T04:38:02;17.20;99.90
38866;DHT22;62686;48.984;8.394;2023-09-12T04:40:31;17.20;99.90
38866;DHT22;62686;48.984;8.394;2023-09-12T04:42:59;17.20;99.90
38866;DHT22;62686;48.984;8.394;2023-09-12T04:45:27;17.30;99.90
38866;DHT22;62686;48.984;8.394;2023-09-12T04:47:55;17.20;99.90
38866;DHT22;62686;48.984;8.394;2023-09-12T04:50:23;17.30;99.90
38866;DHT22;62686;48.984;8.394;2023-09-12T04:52:52;17.30;99.90
38866;DHT22;62686;48.984;8.394;2023-09-12T04:55:21;17.20;99.90
38866;DHT22;62686;48.984;8.394;2023-09-12T04:57:50;17.20;99.90
38866;DHT22;62686;48.984;8.394;2023-09-12T05:00:18;17.30;99.90
38866;DHT22;62686;48.984;8.394;2023-09-12T05:02:46;17.30;99.90
38866;DHT22;62686;48.984;8.394;2023-09-12T05:05:14;17.30;99.90
38866;DHT22;62686;48.984;8.394;2023-09-12T05:14:46;17.20;99.90
38866;DHT22;62686;48.984;8.394;2023-09-12T05:21:21;17.00;99.90
38866;DHT22;62686;48.984;8.394;2023-09-12T05:23:50;17.00;99.90
38866;DHT22;62686;48.984;8.394;2023-09-12T05:26:18;16.90;99.90
38866;DHT22;62686;48.984;8.394;2023-09-12T05:28:46;16.90;99.90
38866;DHT22;62686;48.984;8.394;2023-09-12T05:31:16;16.90;99.90
38866;DHT22;62686;48.984;8.394;2023-09-12T05:33:44;16.80;99.90
38866;DHT22;62686;48.984;8.394;2023-09-12T05:36:12;16.70;99.90
38866;DHT22;62686;48.984;8.394;2023-09-12T05:38:40;16.70;99.90
38866;DHT22;62686;48.984;8.394;2023-09-12T05:41:09;16.70;99.90
38866;DHT22;62686;48.984;8.394;2023-09-12T05:43:37;16.60;99.90
38866;DHT22;62686;48.984;8.394;2023-09-12T05:46:05;16.60;99.90
38866;DHT22;62686;48.984;8.394;2023-09-12T05:48:35;16.60;99.90
38866;DHT22;62686;48.984;8.394;2023-09-12T05:51:03;16.60;99.90
38866;DHT22;62686;48.984;8.394;2023-09-12T05:53:31;16.60;99.90
38866;DHT22;62686;48.984;8.394;2023-09-12T05:55:59;16.70;99.90
38866;DHT22;62686;48.984;8.394;2023-09-12T05:58:31;16.70;99.90
38866;DHT22;62686;48.984;8.394;2023-09-12T06:01:01;16.70;99.90
38866;DHT22;62686;48.984;8.394;2023-09-12T06:03:29;16.80;99.90
38866;DHT22;62686;48.984;8.394;2023-09-12T06:05:59;16.90;99.90
38866;DHT22;62686;48.984;8.394;2023-09-12T06:08:27;17.00;99.90
38866;DHT22;62686;48.984;8.394;2023-09-12T06:10:56;17.00;99.90
38866;DHT22;62686;48.984;8.394;2023-09-12T06:13:24;17.10;99.90
38866;DHT22;62686;48.984;8.394;2023-09-12T06:15:52;17.30;99.90
38866;DHT22;62686;48.984;8.394;2023-09-12T06:18:20;17.40;99.90
38866;DHT22;62686;48.984;8.394;2023-09-12T06:20:51;17.70;99.90
38866;DHT22;62686;48.984;8.394;2023-09-12T06:23:20;18.00;99.90
38866;DHT22;62686;48.984;8.394;2023-09-12T06:25:48;18.30;99.90
38866;DHT22;62686;48.984;8.394;2023-09-12T06:28:24;18.60;99.90
38866;DHT22;62686;48.984;8.394;2023-09-12T06:30:53;18.90;99.90
38866;DHT22;62686;48.984;8.394;2023-09-12T06:33:21;19.10;99.90
38866;DHT22;62686;48.984;8.394;2023-09-12T06:35:49;19.20;99.90
38866;DHT22;62686;48.984;8.394;2023-09-12T06:38:22;19.40;99.90
38866;DHT22;62686;48.984;8.394;2023-09-12T06:40:50;19.90;99.90
38866;DHT22;62686;48.984;8.394;2023-09-12T06:43:19;20.70;99.90
38866;DHT22;62686;48.984;8.394;2023-09-12T06:45:49;21.80;99.90
38866;DHT22;62686;48.984;8.394;2023-09-12T06:48:20;23.20;99.90
38866;DHT22;62686;48.984;8.394;2023-09-12T06:50:48;24.70;99.90
38866;DHT22;62686;48.984;8.394;2023-09-12T06:53:18;26.10;99.90
38866;DHT22;62686;48.984;8.394;2023-09-12T06:55:48;27.00;99.90
38866;DHT22;62686;48.984;8.394;2023-09-12T06:58:16;27.90;99.90
38866;DHT22;62686;48.984;8.394;2023-09-12T07:00:44;28.40;99.90
38866;DHT22;62686;48.984;8.394;2023-09-12T07:03:13;28.50;99.90
38866;DHT22;62686;48.984;8.394;2023-09-12T07:05:42;28.90;99.90
38866;DHT22;62686;48.984;8.394;2023-09-12T07:08:10;28.90;99.90
38866;DHT22;62686;48.984;8.394;2023-09-12T07:10:44;29.00;99.90
38866;DHT22;62686;48.984;8.394;2023-09-12T07:13:14;29.20;99.90
38866;DHT22;62686;48.984;8.394;2023-09-12T07:15:42;29.60;99.90
38866;DHT22;62686;48.984;8.394;2023-09-12T07:18:13;29.80;99.90
38866;DHT22;62686;48.984;8.394;2023-09-12T07:20:42;30.50;99.90
38866;DHT22;62686;48.984;8.394;2023-09-12T07:23:14;30.30;99.90
38866;DHT22;62686;48.984;8.394;2023-09-12T07:25:42;30.20;99.90
38866;DHT22;62686;48.984;8.394;2023-09-12T07:28:10;29.90;99.90
38866;DHT22;62686;48.984;8.394;2023-09-12T07:30:40;30.00;99.90
38866;DHT22;62686;48.984;8.394;2023-09-12T07:33:09;30.20;99.90
38866;DHT22;62686;48.984;8.394;2023-09-12T07:35:37;30.40;99.90
38866;DHT22;62686;48.984;8.394;2023-09-12T07:38:06;31.10;99.90
38866;DHT22;62686;48.984;8.394;2023-09-12T07:40:35;32.10;99.90
38866;DHT22;62686;48.984;8.394;2023-09-12T07:43:03;32.80;99.90
38866;DHT22;62686;48.984;8.394;2023-09-12T07:45:31;33.40;99.90
38866;DHT22;62686;48.984;8.394;2023-09-12T07:48:09;34.20;99.90
38866;DHT22;62686;48.984;8.394;2023-09-12T07:50:38;34.60;99.90
38866;DHT22;62686;48.984;8.394;2023-09-12T07:53:06;34.80;99.90
38866;DHT22;62686;48.984;8.394;2023-09-12T07:55:37;34.60;99.90
38866;DHT22;62686;48.984;8.394;2023-09-12T07:58:13;34.70;99.90
38866;DHT22;62686;48.984;8.394;2023-09-12T08:00:41;35.60;99.30
38866;DHT22;62686;48.984;8.394;2023-09-12T08:03:13;35.90;98.20
38866;DHT22;62686;48.984;8.394;2023-09-12T08:05:42;35.80;98.00
38866;DHT22;62686;48.984;8.394;2023-09-12T08:08:10;34.50;97.70
38866;DHT22;62686;48.984;8.394;2023-09-12T08:10:38;34.80;98.60
38866;DHT22;62686;48.984;8.394;2023-09-12T08:13:06;35.30;98.00
38866;DHT22;62686;48.984;8.394;2023-09-12T08:15:34;35.80;96.50
38866;DHT22;62686;48.984;8.394;2023-09-12T08:18:03;35.30;96.70
38866;DHT22;62686;48.984;8.394;2023-09-12T08:20:32;34.60;98.90
38866;DHT22;62686;48.984;8.394;2023-09-12T08:23:01;34.50;98.80
38866;DHT22;62686;48.984;8.394;2023-09-12T08:25:29;33.40;98.40
38866;DHT22;62686;48.984;8.394;2023-09-12T08:27:57;34.00;98.50
38866;DHT22;62686;48.984;8.394;2023-09-12T08:30:26;33.60;98.90
38866;DHT22;62686;48.984;8.394;2023-09-12T08:32:55;33.10;99.40
38866;DHT22;62686;48.984;8.394;2023-09-12T08:35:23;33.40;98.80
38866;DHT22;62686;48.984;8.394;2023-09-12T08:37:55;33.80;98.20
38866;DHT22;62686;48.984;8.394;2023-09-12T08:40:24;33.40;98.80
38866;DHT22;62686;48.984;8.394;2023-09-12T08:42:52;32.30;99.80
38866;DHT22;62686;48.984;8.394;2023-09-12T08:45:21;31.20;99.90
38866;DHT22;62686;48.984;8.394;2023-09-12T08:47:52;30.50;99.90
38866;DHT22;62686;48.984;8.394;2023-09-12T08:50:21;30.90;99.90
38866;DHT22;62686;48.984;8.394;2023-09-12T08:52:50;31.80;99.90
38866;DHT22;62686;48.984;8.394;2023-09-12T08:55:31;32.60;99.90
38866;DHT22;62686;48.984;8.394;2023-09-12T08:58:02;32.10;99.90
38866;DHT22;62686;48.984;8.394;2023-09-12T09:00:31;31.00;99.90
38866;DHT22;62686;48.984;8.394;2023-09-12T09:03:00;30.00;99.90
38866;DHT22;62686;48.984;8.394;2023-09-12T09:05:29;29.40;99.90
38866;DHT22;62686;48.984;8.394;2023-09-12T09:07:59;29.70;99.90
38866;DHT22;62686;48.984;8.394;2023-09-12T09:10:28;30.40;99.90
38866;DHT22;62686;48.984;8.394;2023-09-12T09:13:12;31.00;99.90
38866;DHT22;62686;48.984;8.394;2023-09-12T09:15:40;33.00;99.90
38866;DHT22;62686;48.984;8.394;2023-09-12T09:21:28;34.50;98.90
38866;DHT22;62686;48.984;8.394;2023-09-12T09:27:05;33.70;99.90
38866;DHT22;62686;48.984;8.394;2023-09-12T09:33:28;34.80;97.40
38866;DHT22;62686;48.984;8.394;2023-09-12T09:39:04;33.10;98.20
38866;DHT22;62686;48.984;8.394;2023-09-12T09:44:28;30.20;99.90
38866;DHT22;62686;48.984;8.394;2023-09-12T09:53:26;29.70;99.90
38866;DHT22;62686;48.984;8.394;2023-09-12T09:56:10;29.80;99.90
38866;DHT22;62686;48.984;8.394;2023-09-12T09:59:17;30.00;99.90
38866;DHT22;62686;48.984;8.394;2023-09-12T10:02:09;30.30;99.90
38866;DHT22;62686;48.984;8.394;2023-09-12T10:05:06;30.60;99.90
38866;DHT22;62686;48.984;8.394;2023-09-12T10:07:37;30.20;99.90
38866;DHT22;62686;48.984;8.394;2023-09-12T10:10:08;30.30;99.90
38866;DHT22;62686;48.984;8.394;2023-09-12T10:12:45;30.10;99.90
38866;DHT22;62686;48.984;8.394;2023-09-12T10:15:18;29.80;99.90
38866;DHT22;62686;48.984;8.394;2023-09-12T10:17:53;29.90;99.90
38866;DHT22;62686;48.984;8.394;2023-09-12T10:20:25;29.80;99.90
38866;DHT22;62686;48.984;8.394;2023-09-12T10:23:03;29.80;99.90
38866;DHT22;62686;48.984;8.394;2023-09-12T10:25:37;29.70;99.90
38866;DHT22;62686;48.984;8.394;2023-09-12T10:28:09;29.70;99.90
38866;DHT22;62686;48.984;8.394;2023-09-12T10:30:38;29.70;99.90
38866;DHT22;62686;48.984;8.394;2023-09-12T10:33:08;29.60;99.90
38866;DHT22;62686;48.984;8.394;2023-09-12T10:35:37;29.50;99.90
38866;DHT22;62686;48.984;8.394;2023-09-12T10:38:08;29.50;99.90
38866;DHT22;62686;48.984;8.394;2023-09-12T10:40:38;29.50;99.90
38866;DHT22;62686;48.984;8.394;2023-09-12T10:43:09;29.60;99.90
38866;DHT22;62686;48.984;8.394;2023-09-12T10:45:39;29.60;99.90
38866;DHT22;62686;48.984;8.394;2023-09-12T10:48:09;29.40;99.90
38866;DHT22;62686;48.984;8.394;2023-09-12T10:50:38;29.50;99.90
38866;DHT22;62686;48.984;8.394;2023-09-12T10:53:11;29.40;99.90
38866;DHT22;62686;48.984;8.394;2023-09-12T10:55:41;29.60;99.90
38866;DHT22;62686;48.984;8.394;2023-09-12T10:58:09;29.90;99.90
38866;DHT22;62686;48.984;8.394;2023-09-12T11:00:39;30.40;99.90
38866;DHT22;62686;48.984;8.394;2023-09-12T11:06:20;31.10;99.90
38866;DHT22;62686;48.984;8.394;2023-09-12T11:09:16;31.30;99.90
38866;DHT22;62686;48.984;8.394;2023-09-12T11:11:48;31.40;99.90
38866;DHT22;62686;48.984;8.394;2023-09-12T11:14:16;31.60;99.90
38866;DHT22;62686;48.984;8.394;2023-09-12T11:19:50;32.20;99.90
38866;DHT22;62686;48.984;8.394;2023-09-12T11:22:24;32.40;99.90
38866;DHT22;62686;48.984;8.394;2023-09-12T11:24:53;33.30;99.90
38866;DHT22;62686;48.984;8.394;2023-09-12T11:27:25;34.50;99.40
38866;DHT22;62686;48.984;8.394;2023-09-12T11:30:04;36.00;96.50
38866;DHT22;62686;48.984;8.394;2023-09-12T11:32:34;35.90;94.60
38866;DHT22;62686;48.984;8.394;2023-09-12T11:35:05;36.60;95.40
38866;DHT22;62686;48.984;8.394;2023-09-12T11:37:34;37.50;93.60
38866;DHT22;62686;48.984;8.394;2023-09-12T11:40:17;38.40;92.60
38866;DHT22;62686;48.984;8.394;2023-09-12T11:42:47;39.30;89.40
38866;DHT22;62686;48.984;8.394;2023-09-12T11:45:18;40.00;82.50
38866;DHT22;62686;48.984;8.394;2023-09-12T11:47:47;40.50;84.50
38866;DHT22;62686;48.984;8.394;2023-09-12T11:50:29;40.70;80.50
38866;DHT22;62686;48.984;8.394;2023-09-12T11:53:01;40.90;77.40
38866;DHT22;62686;48.984;8.394;2023-09-12T11:55:35;40.20;76.30
38866;DHT22;62686;48.984;8.394;2023-09-12T11:58:06;40.30;78.90
38866;DHT22;62686;48.984;8.394;2023-09-12T12:00:34;40.50;75.90
38866;DHT22;62686;48.984;8.394;2023-09-12T12:03:03;40.40;73.90
38866;DHT22;62686;48.984;8.394;2023-09-12T12:05:32;39.70;73.70
38866;DHT22;62686;48.984;8.394;2023-09-12T12:08:03;39.90;81.30
38866;DHT22;62686;48.984;8.394;2023-09-12T12:10:34;41.10;77.20
38866;DHT22;62686;48.984;8.394;2023-09-12T12:13:04;41.70;73.60
38866;DHT22;62686;48.984;8.394;2023-09-12T12:15:32;41.60;67.10
38866;DHT22;62686;48.984;8.394;2023-09-12T12:18:00;40.50;68.30
38866;DHT22;62686;48.984;8.394;2023-09-12T12:20:29;40.70;71.30
38866;DHT22;62686;48.984;8.394;2023-09-12T12:22:57;41.30;68.50
38866;DHT22;62686;48.984;8.394;2023-09-12T12:25:25;41.50;68.50
38866;DHT22;62686;48.984;8.394;2023-09-12T12:27:53;40.60;69.50
38866;DHT22;62686;48.984;8.394;2023-09-12T12:30:23;40.80;68.80
38866;DHT22;62686;48.984;8.394;2023-09-12T12:32:52;40.20;69.50
38866;DHT22;62686;48.984;8.394;2023-09-12T12:35:21;40.50;71.10
38866;DHT22;62686;48.984;8.394;2023-09-12T12:37:50;40.30;68.70
38866;DHT22;62686;48.984;8.394;2023-09-12T12:40:23;39.50;72.20
38866;DHT22;62686;48.984;8.394;2023-09-12T12:42:52;39.30;71.60
38866;DHT22;62686;48.984;8.394;2023-09-12T12:45:23;38.90;70.50
38866;DHT22;62686;48.984;8.394;2023-09-12T12:47:57;38.80;71.30
38866;DHT22;62686;48.984;8.394;2023-09-12T12:50:26;37.90;74.60
38866;DHT22;62686;48.984;8.394;2023-09-12T12:52:54;37.90;73.40
38866;DHT22;62686;48.984;8.394;2023-09-12T12:55:25;38.30;74.00
38866;DHT22;62686;48.984;8.394;2023-09-12T12:57:54;39.00;73.00
38866;DHT22;62686;48.984;8.394;2023-09-12T13:00:23;38.20;69.80
38866;DHT22;62686;48.984;8.394;2023-09-12T13:02:52;37.80;71.40
38866;DHT22;62686;48.984;8.394;2023-09-12T13:05:21;38.20;76.30
38866;DHT22;62686;48.984;8.394;2023-09-12T13:07:49;38.80;72.10
38866;DHT22;62686;48.984;8.394;2023-09-12T13:10:18;39.50;70.20
38866;DHT22;62686;48.984;8.394;2023-09-12T13:12:47;40.40;69.10
38866;DHT22;62686;48.984;8.394;2023-09-12T13:15:16;40.10;65.80
38866;DHT22;62686;48.984;8.394;2023-09-12T13:17:46;40.40;66.60
38866;DHT22;62686;48.984;8.394;2023-09-12T13:20:15;40.30;66.30
38866;DHT22;62686;48.984;8.394;2023-09-12T13:22:43;40.10;65.90
38866;DHT22;62686;48.984;8.394;2023-09-12T13:25:12;39.80;65.80
38866;DHT22;62686;48.984;8.394;2023-09-12T13:27:40;40.50;65.50
38866;DHT22;62686;48.984;8.394;2023-09-12T13:30:10;40.80;64.90
38866;DHT22;62686;48.984;8.394;2023-09-12T13:32:39;40.50;69.50
38866;DHT22;62686;48.984;8.394;2023-09-12T13:35:08;40.60;65.20
38866;DHT22;62686;48.984;8.394;2023-09-12T13:37:37;40.00;64.00
38866;DHT22;62686;48.984;8.394;2023-09-12T13:40:06;39.90;68.90
38866;DHT22;62686;48.984;8.394;2023-09-12T13:42:35;39.70;66.30
38866;DHT22;62686;48.984;8.394;2023-09-12T13:45:04;40.10;69.10
38866;DHT22;62686;48.984;8.394;2023-09-12T13:47:33;40.50;64.20
38866;DHT22;62686;48.984;8.394;2023-09-12T13:50:01;40.80;63.90
38866;DHT22;62686;48.984;8.394;2023-09-12T13:52:30;39.70;62.20
38866;DHT22;62686;48.984;8.394;2023-09-12T13:54:59;40.50;65.50
38866;DHT22;62686;48.984;8.394;2023-09-12T13:57:30;39.70;62.30
38866;DHT22;62686;48.984;8.394;2023-09-12T13:59:59;39.70;62.20
38866;DHT22;62686;48.984;8.394;2023-09-12T14:02:28;39.60;69.70
38866;DHT22;62686;48.984;8.394;2023-09-12T14:04:57;39.80;64.50
38866;DHT22;62686;48.984;8.394;2023-09-12T14:07:34;39.90;66.60
38866;DHT22;62686;48.984;8.394;2023-09-12T14:10:04;39.40;63.70
38866;DHT22;62686;48.984;8.394;2023-09-12T14:12:32;39.70;61.60
38866;DHT22;62686;48.984;8.394;2023-09-12T14:15:01;40.10;62.60
38866;DHT22;62686;48.984;8.394;2023-09-12T14:17:33;40.40;62.30
38866;DHT22;62686;48.984;8.394;2023-09-12T14:20:02;40.60;59.90
38866;DHT22;62686;48.984;8.394;2023-09-12T14:22:30;40.90;58.90
38866;DHT22;62686;48.984;8.394;2023-09-12T14:25:00;40.10;58.10
38866;DHT22;62686;48.984;8.394;2023-09-12T14:27:29;40.40;58.20
38866;DHT22;62686;48.984;8.394;2023-09-12T14:30:00;40.00;59.00
38866;DHT22;62686;48.984;8.394;2023-09-12T14:32:30;40.00;59.40
38866;DHT22;62686;48.984;8.394;2023-09-12T14:34:58;40.50;61.00
38866;DHT22;62686;48.984;8.394;2023-09-12T14:37:26;40.30;59.10
38866;DHT22;62686;48.984;8.394;2023-09-12T14:39:55;40.40;60.60
38866;DHT22;62686;48.984;8.394;2023-09-12T14:42:24;39.40;62.00
38866;DHT22;62686;48.984;8.394;2023-09-12T14:44:53;38.00;64.30
38866;DHT22;62686;48.984;8.394;2023-09-12T14:47:21;36.80;62.20
38866;DHT22;62686;48.984;8.394;2023-09-12T14:49:49;36.00;63.30
38866;DHT22;62686;48.984;8.394;2023-09-12T14:52:17;35.20;63.50
38866;DHT22;62686;48.984;8.394;2023-09-12T14:54:50;34.40;68.40
38866;DHT22;62686;48.984;8.394;2023-09-12T14:57:19;33.80;69.20
38866;DHT22;62686;48.984;8.394;2023-09-12T14:59:50;33.40;68.00
38866;DHT22;62686;48.984;8.394;2023-09-12T15:02:18;33.00;69.60
38866;DHT22;62686;48.984;8.394;2023-09-12T15:04:47;32.70;69.30
38866;DHT22;62686;48.984;8.394;2023-09-12T15:07:15;32.50;71.50
38866;DHT22;62686;48.984;8.394;2023-09-12T15:09:44;32.20;72.80
38866;DHT22;62686;48.984;8.394;2023-09-12T15:12:12;31.90;72.10
38866;DHT22;62686;48.984;8.394;2023-09-12T15:14:40;31.70;72.00
38866;DHT22;62686;48.984;8.394;2023-09-12T15:17:10;31.50;72.80
38866;DHT22;62686;48.984;8.394;2023-09-12T15:19:38;31.40;73.10
38866;DHT22;62686;48.984;8.394;2023-09-12T15:22:06;31.20;71.30
38866;DHT22;62686;48.984;8.394;2023-09-12T15:24:35;31.20;71.10
38866;DHT22;62686;48.984;8.394;2023-09-12T15:27:03;31.10;71.60
38866;DHT22;62686;48.984;8.394;2023-09-12T15:29:32;31.00;74.20
38866;DHT22;62686;48.984;8.394;2023-09-12T15:32:00;30.80;75.30
38866;DHT22;62686;48.984;8.394;2023-09-12T15:34:29;30.60;78.40
38866;DHT22;62686;48.984;8.394;2023-09-12T15:37:06;30.60;74.80
38866;DHT22;62686;48.984;8.394;2023-09-12T15:39:46;30.40;76.30
38866;DHT22;62686;48.984;8.394;2023-09-12T15:42:14;30.20;78.00
38866;DHT22;62686;48.984;8.394;2023-09-12T15:44:53;30.00;76.60
38866;DHT22;62686;48.984;8.394;2023-09-12T15:47:26;29.90;79.50
38866;DHT22;62686;48.984;8.394;2023-09-12T15:49:56;29.80;76.40
38866;DHT22;62686;48.984;8.394;2023-09-12T15:52:24;29.70;79.40
38866;DHT22;62686;48.984;8.394;2023-09-12T15:54:53;29.60;77.60
38866;DHT22;62686;48.984;8.394;2023-09-12T15:57:21;29.60;80.30
38866;DHT22;62686;48.984;8.394;2023-09-12T15:59:49;29.60;76.60
38866;DHT22;62686;48.984;8.394;2023-09-12T16:02:18;29.60;80.90
38866;DHT22;62686;48.984;8.394;2023-09-12T16:04:46;29.50;81.20
38866;DHT22;62686;48.984;8.394;2023-09-12T16:07:16;29.50;79.20
38866;DHT22;62686;48.984;8.394;2023-09-12T16:09:44;29.50;80.40
38866;DHT22;62686;48.984;8.394;2023-09-12T16:12:14;29.50;81.40
38866;DHT22;62686;48.984;8.394;2023-09-12T16:14:42;29.40;79.10
38866;DHT22;62686;48.984;8.394;2023-09-12T16:17:10;29.30;79.20
38866;DHT22;62686;48.984;8.394;2023-09-12T16:19:38;29.20;85.30
38866;DHT22;62686;48.984;8.394;2023-09-12T16:22:06;29.10;82.80
38866;DHT22;62686;48.984;8.394;2023-09-12T16:24:38;28.90;85.80
38866;DHT22;62686;48.984;8.394;2023-09-12T16:27:06;28.70;87.40